createdAt,value
2023-04-14T00:00:47.779Z,131.80
2023-04-14T00:03:16.662Z,128.77
2023-04-14T00:05:44.538Z,133.33
2023-04-14T00:08:12.220Z,123.33
2023-04-14T00:10:40.750Z,121.57
2023-04-14T00:13:08.621Z,139.90
2023-04-14T00:15:37.761Z,128.83
2023-04-14T00:18:06.256Z,139.97
2023-04-14T00:20:34.059Z,131.13
2023-04-14T00:23:01.791Z,120.77
2023-04-14T00:25:29.516Z,128.17
2023-04-14T00:27:57.247Z,127.80
2023-04-14T00:30:24.930Z,129.07
2023-04-14T00:32:53.922Z,125.60
2023-04-14T00:35:21.797Z,121.80
2023-04-14T00:37:49.459Z,127.93
2023-04-14T00:40:17.085Z,122.50
2023-04-14T00:42:45.349Z,124.77
2023-04-14T00:45:13.839Z,133.20
2023-04-14T00:47:46.911Z,125.63
2023-04-14T00:50:18.221Z,115.47
2023-04-14T00:52:50.089Z,119.40
2023-04-14T00:55:20.524Z,122.87
2023-04-14T00:57:48.829Z,113.20
2023-04-14T01:00:17.189Z,121.97
2023-04-14T01:02:44.992Z,111.73
2023-04-14T01:05:12.903Z,114.93
2023-04-14T01:07:42.349Z,119.07
2023-04-14T01:10:11.339Z,109.80
2023-04-14T01:12:55.666Z,122.30
2023-04-14T01:15:31.394Z,114.57
2023-04-14T01:18:08.456Z,111.97
2023-04-14T01:20:42.268Z,109.47
2023-04-14T01:23:16.819Z,112.57
2023-04-14T01:26:10.753Z,101.97
2023-04-14T01:28:56.065Z,104.77
2023-04-14T01:31:29.128Z,114.63
2023-04-14T01:34:04.141Z,107.63
2023-04-14T01:36:39.039Z,115.13
2023-04-14T01:39:09.635Z,113.97
2023-04-14T01:41:40.362Z,109.63
2023-04-14T01:44:10.617Z,110.53
2023-04-14T01:46:42.360Z,110.83
2023-04-14T01:49:12.102Z,110.00
2023-04-14T01:51:43.215Z,107.93
2023-04-14T01:54:13.049Z,107.43
2023-04-14T01:56:42.738Z,120.87
2023-04-14T01:59:13.261Z,110.03
2023-04-14T02:01:44.614Z,113.07
2023-04-14T02:04:13.590Z,118.20
2023-04-14T02:06:41.912Z,100.43
2023-04-14T02:09:13.008Z,106.60
2023-04-14T02:11:42.283Z,108.00
2023-04-14T02:14:11.924Z,114.07
2023-04-14T02:16:41.130Z,110.30
2023-04-14T02:19:10.568Z,110.17
2023-04-14T02:21:39.497Z,109.07
2023-04-14T02:24:07.773Z,97.97
2023-04-14T02:26:38.592Z,105.70
2023-04-14T02:29:12.031Z,108.87
2023-04-14T02:31:44.472Z,105.87
2023-04-14T02:34:15.431Z,103.40
2023-04-14T02:36:47.268Z,106.60
2023-04-14T02:39:19.189Z,105.87
2023-04-14T02:41:47.863Z,105.70
2023-04-14T02:44:20.288Z,108.20
2023-04-14T02:46:54.753Z,105.67
2023-04-14T02:49:25.966Z,100.53
2023-04-14T02:51:56.648Z,106.80
2023-04-14T02:54:25.537Z,111.27
2023-04-14T02:56:54.421Z,113.83
2023-04-14T02:59:26.991Z,110.67
2023-04-14T03:02:04.563Z,105.53
2023-04-14T03:04:39.086Z,102.47
2023-04-14T03:07:14.529Z,112.47
2023-04-14T03:09:43.001Z,114.13
2023-04-14T03:12:13.316Z,107.60
2023-04-14T03:14:45.106Z,107.10
2023-04-14T03:17:15.424Z,115.07
2023-04-14T03:19:48.583Z,106.80
2023-04-14T03:22:17.787Z,106.63
2023-04-14T03:24:46.317Z,108.50
2023-04-14T03:27:21.834Z,113.40
2023-04-14T03:29:55.002Z,105.10
2023-04-14T03:32:25.879Z,107.13
2023-04-14T03:34:58.922Z,98.67
2023-04-14T03:37:28.922Z,102.63
2023-04-14T03:40:00.453Z,104.93
2023-04-14T03:42:30.929Z,101.03
2023-04-14T03:45:00.443Z,102.77
2023-04-14T03:47:31.772Z,105.97
2023-04-14T03:50:05.518Z,96.40
2023-04-14T03:52:36.389Z,97.77
2023-04-14T03:55:07.134Z,100.27
2023-04-14T03:57:38.748Z,101.37
2023-04-14T04:00:09.413Z,102.97
2023-04-14T04:02:46.230Z,95.00
2023-04-14T04:05:16.026Z,103.67
2023-04-14T04:07:45.439Z,106.13
2023-04-14T04:10:14.326Z,95.97
2023-04-14T04:12:44.052Z,102.20
2023-04-14T04:15:13.094Z,102.53
2023-04-14T04:17:44.154Z,102.40
2023-04-14T04:20:16.438Z,96.23
2023-04-14T04:22:49.712Z,105.20
2023-04-14T04:25:17.923Z,97.03
2023-04-14T04:27:53.640Z,84.17
2023-04-14T04:30:25.225Z,97.73
2023-04-14T04:32:52.924Z,94.63
2023-04-14T04:39:09.575Z,84.40
2023-04-14T04:41:41.105Z,91.87
2023-04-14T04:44:09.617Z,100.33
2023-04-14T04:46:51.029Z,97.73
2023-04-14T04:49:18.832Z,97.17
2023-04-14T04:51:46.985Z,94.53
2023-04-14T04:54:17.356Z,97.37
2023-04-14T04:56:45.280Z,100.60
2023-04-14T04:59:13.131Z,98.00
2023-04-14T05:01:42.063Z,92.00
2023-04-14T05:04:09.889Z,96.67
2023-04-14T05:06:38.414Z,97.33
2023-04-14T05:09:06.682Z,98.17
2023-04-14T05:11:36.270Z,99.63
2023-04-14T05:14:04.243Z,103.63
2023-04-14T05:16:32.032Z,102.17
2023-04-14T05:19:00.514Z,105.87
2023-04-14T05:21:28.330Z,100.87
2023-04-14T05:23:56.112Z,100.03
2023-04-14T05:28:56.119Z,105.23
2023-04-14T05:31:23.804Z,101.10
2023-04-14T05:33:51.473Z,105.63
2023-04-14T05:36:19.168Z,104.97
2023-04-14T05:38:46.959Z,109.73
2023-04-14T05:41:14.559Z,106.73
2023-04-14T05:43:42.216Z,108.07
2023-04-14T05:46:11.292Z,115.13
2023-04-14T05:48:38.978Z,111.03
2023-04-14T05:51:06.763Z,107.07
2023-04-14T05:53:34.362Z,116.23
2023-04-14T05:56:01.987Z,111.97
2023-04-14T05:58:29.637Z,109.90
2023-04-14T06:00:57.280Z,111.33
2023-04-14T06:03:26.402Z,119.13
2023-04-14T06:05:54.203Z,118.40
2023-04-14T06:08:21.833Z,124.73
2023-04-14T06:10:49.884Z,123.73
2023-04-14T06:13:17.564Z,128.90
2023-04-14T06:15:45.256Z,123.90
2023-04-14T06:18:12.847Z,124.83
2023-04-14T06:20:41.896Z,132.57
2023-04-14T06:23:09.773Z,134.23
2023-04-14T06:25:37.452Z,131.73
2023-04-14T06:28:05.407Z,141.73
2023-04-14T06:30:33.150Z,142.67
2023-04-14T06:33:04.148Z,144.43
2023-04-14T06:35:33.488Z,149.63
2023-04-14T06:38:03.198Z,145.80
2023-04-14T06:40:30.964Z,153.67
2023-04-14T06:42:58.572Z,152.87
2023-04-14T06:45:26.241Z,152.17
2023-04-14T06:47:53.888Z,171.37
2023-04-14T06:50:21.521Z,159.70
2023-04-14T06:52:49.110Z,166.97
2023-04-14T06:55:18.341Z,162.63
2023-04-14T06:57:45.953Z,170.97
2023-04-14T07:00:15.325Z,162.87
2023-04-14T07:02:43.073Z,164.20
2023-04-14T07:05:11.006Z,178.20
2023-04-14T07:07:40.088Z,156.10
2023-04-14T07:10:08.500Z,171.07
2023-04-14T07:12:37.492Z,158.33
2023-04-14T07:15:06.140Z,170.77
2023-04-14T07:17:36.688Z,172.67
2023-04-14T07:20:05.224Z,185.63
2023-04-14T07:22:33.202Z,173.10
2023-04-14T07:25:00.832Z,185.10
2023-04-14T07:27:28.739Z,183.20
2023-04-14T07:29:58.375Z,191.20
2023-04-14T07:32:25.963Z,174.47
2023-04-14T07:34:53.601Z,191.93
2023-04-14T07:37:21.699Z,199.47
2023-04-14T07:39:49.288Z,184.57
2023-04-14T07:42:16.967Z,189.50
2023-04-14T07:44:44.625Z,190.10
2023-04-14T07:47:13.637Z,199.20
2023-04-14T07:49:41.314Z,206.07
2023-04-14T07:52:08.995Z,173.60
2023-04-14T07:54:36.612Z,188.83
2023-04-14T07:57:04.244Z,194.33
2023-04-14T07:59:32.318Z,180.37
2023-04-14T08:02:00.149Z,194.60
2023-04-14T08:04:29.230Z,201.93
2023-04-14T08:06:57.842Z,232.37
2023-04-14T08:09:25.546Z,225.90
2023-04-14T08:11:53.124Z,227.17
2023-04-14T08:14:21.007Z,245.33
2023-04-14T08:16:49.519Z,229.35
2023-04-14T08:19:17.137Z,241.70
2023-04-14T08:21:46.077Z,249.27
2023-04-14T08:24:13.689Z,248.57
2023-04-14T08:26:41.291Z,234.80
2023-04-14T08:29:08.877Z,237.90
2023-04-14T08:31:37.102Z,232.07
2023-04-14T08:34:05.318Z,237.63
2023-04-14T08:36:33.019Z,231.00
2023-04-14T08:39:02.411Z,227.63
2023-04-14T08:41:34.534Z,216.40
2023-04-14T08:44:02.234Z,215.00
2023-04-14T08:46:31.720Z,202.52
2023-04-14T08:49:04.592Z,205.50
2023-04-14T08:51:35.478Z,207.73
2023-04-14T08:54:08.398Z,222.35
2023-04-14T08:56:39.035Z,210.70
2023-04-14T08:59:07.556Z,220.27
2023-04-14T09:01:36.509Z,215.70
2023-04-14T09:04:05.032Z,213.40
2023-04-14T09:06:34.328Z,214.77
2023-04-14T09:09:06.849Z,205.07
2023-04-14T09:11:34.848Z,217.55
2023-04-14T09:14:03.087Z,202.00
2023-04-14T09:16:32.207Z,203.10
2023-04-14T09:19:02.362Z,206.45
2023-04-14T09:21:53.851Z,226.57
2023-04-14T09:24:30.044Z,219.38
2023-04-14T09:26:59.929Z,215.98
2023-04-14T09:29:27.834Z,218.23
2023-04-14T09:31:55.557Z,223.35
2023-04-14T09:34:23.155Z,226.45
2023-04-14T09:37:02.331Z,244.48
2023-04-14T09:39:32.207Z,239.48
2023-04-14T09:42:00.168Z,242.63
2023-04-14T09:44:27.862Z,243.98
2023-04-14T09:47:00.236Z,245.00
2023-04-14T09:49:29.112Z,266.48
2023-04-14T09:52:03.727Z,242.93
2023-04-14T09:54:33.333Z,251.02
2023-04-14T09:57:01.482Z,249.27
2023-04-14T09:59:34.190Z,267.83
2023-04-14T10:02:05.573Z,252.93
2023-04-14T10:04:33.438Z,252.27
2023-04-14T10:07:01.633Z,259.20
2023-04-14T10:09:30.859Z,243.55
2023-04-14T10:12:10.828Z,247.63
2023-04-14T10:14:39.447Z,239.57
2023-04-14T10:17:07.495Z,242.63
2023-04-14T10:19:36.771Z,249.38
2023-04-14T10:22:05.835Z,223.95
2023-04-14T10:24:33.943Z,242.75
2023-04-14T10:27:04.160Z,250.07
2023-04-14T10:29:33.270Z,236.63
2023-04-14T10:32:05.526Z,228.32
2023-04-14T10:34:34.664Z,242.70
2023-04-14T10:37:15.263Z,240.80
2023-04-14T10:39:43.221Z,226.75
2023-04-14T10:42:11.007Z,218.65
2023-04-14T10:44:40.844Z,202.82
2023-04-14T10:47:08.952Z,235.50
2023-04-14T10:49:38.175Z,221.07
2023-04-14T10:52:28.191Z,218.32
2023-04-14T10:55:00.856Z,218.15
2023-04-14T10:57:30.088Z,210.25
2023-04-14T11:00:00.436Z,222.38
2023-04-14T11:02:30.073Z,215.43
2023-04-14T11:05:03.868Z,200.40
2023-04-14T11:07:32.871Z,190.57
2023-04-14T11:10:05.004Z,187.55
2023-04-14T11:12:32.682Z,214.27
2023-04-14T11:15:04.815Z,210.85
2023-04-14T11:17:34.227Z,204.93
2023-04-14T11:20:02.207Z,214.93
2023-04-14T11:22:38.298Z,199.55
2023-04-14T11:25:06.815Z,190.15
2023-04-14T11:27:35.698Z,181.68
2023-04-14T11:30:07.006Z,177.88
2023-04-14T11:32:47.576Z,173.40
2023-04-14T11:35:15.839Z,167.90
2023-04-14T11:37:43.992Z,179.80
2023-04-14T11:40:12.682Z,205.93
2023-04-14T11:42:44.798Z,191.45
2023-04-14T11:45:15.423Z,184.25
2023-04-14T11:47:48.779Z,196.05
2023-04-14T11:50:18.092Z,170.68
2023-04-14T11:52:47.258Z,183.75
2023-04-14T11:55:15.165Z,178.10
2023-04-14T11:57:45.568Z,177.07
2023-04-14T12:00:15.439Z,180.55
2023-04-14T12:02:44.836Z,179.70
2023-04-14T12:05:13.766Z,183.50
2023-04-14T12:07:43.836Z,169.57
2023-04-14T12:10:12.509Z,159.10
2023-04-14T12:12:41.076Z,169.15
2023-04-14T12:15:10.162Z,175.48
2023-04-14T12:17:39.187Z,153.35
2023-04-14T12:20:14.360Z,166.10
2023-04-14T12:22:42.096Z,166.38
2023-04-14T12:25:13.905Z,152.10
2023-04-14T12:27:42.076Z,149.38
2023-04-14T12:30:10.681Z,156.05
2023-04-14T12:32:41.414Z,144.15
2023-04-14T12:35:09.767Z,154.13
2023-04-14T12:37:38.832Z,147.27
2023-04-14T12:40:07.971Z,137.00
2023-04-14T12:42:47.111Z,147.25
2023-04-14T12:45:15.961Z,133.93
2023-04-14T12:47:54.212Z,146.88
2023-04-14T12:50:27.983Z,145.38
2023-04-14T12:52:56.364Z,143.40
2023-04-14T12:55:25.217Z,150.85
2023-04-14T12:57:54.299Z,143.63
2023-04-14T13:00:22.581Z,150.70
2023-04-14T13:02:51.896Z,147.98
2023-04-14T13:05:21.026Z,144.80
2023-04-14T13:07:48.730Z,138.73
2023-04-14T13:10:16.416Z,141.05
2023-04-14T13:12:44.104Z,133.88
2023-04-14T13:15:59.961Z,132.63
2023-04-14T13:18:01.380Z,115.13
2023-04-14T13:20:31.468Z,111.10
2023-04-14T13:22:59.098Z,107.15
2023-04-14T13:25:26.677Z,96.05
2023-04-14T13:27:54.297Z,113.90
2023-04-14T13:30:22.000Z,118.88
2023-04-14T13:32:49.735Z,103.55
2023-04-14T13:35:17.422Z,98.40
2023-04-14T13:37:46.897Z,101.60
2023-04-14T13:40:14.637Z,90.22
2023-04-14T13:42:42.267Z,90.68
2023-04-14T13:45:10.955Z,90.72
2023-04-14T13:47:38.589Z,88.55
2023-04-14T13:50:07.355Z,83.70
2023-04-14T13:52:35.671Z,84.13
2023-04-14T13:55:04.965Z,86.88
2023-04-14T13:57:33.061Z,95.15
2023-04-14T14:00:00.871Z,92.60
2023-04-14T14:02:28.551Z,90.80
2023-04-14T14:04:56.596Z,87.82
2023-04-14T14:07:24.258Z,90.07
2023-04-14T14:09:51.942Z,84.30
2023-04-14T14:12:21.033Z,90.68
2023-04-14T14:14:48.692Z,90.15
2023-04-14T14:17:16.823Z,80.32
2023-04-14T14:19:44.509Z,81.72
2023-04-14T14:22:12.224Z,83.70
2023-04-14T14:24:41.330Z,84.18
2023-04-14T14:27:09.001Z,81.80
2023-04-14T14:29:37.941Z,81.68
2023-04-14T14:32:05.657Z,88.07
2023-04-14T14:34:33.476Z,84.93
2023-04-14T14:37:01.114Z,78.07
2023-04-14T14:39:30.430Z,79.03
2023-04-14T14:41:58.649Z,79.63
2023-04-14T14:44:26.364Z,80.88
2023-04-14T14:46:56.630Z,79.65
2023-04-14T14:49:24.466Z,80.03
2023-04-14T14:51:52.166Z,81.55
2023-04-14T14:54:19.753Z,80.40
2023-04-14T14:56:47.417Z,83.63
2023-04-14T14:59:16.220Z,81.00
2023-04-14T15:01:45.974Z,74.30
2023-04-14T15:04:15.114Z,80.05
2023-04-14T15:06:42.751Z,75.40
2023-04-14T15:09:10.437Z,80.50
2023-04-14T15:11:38.126Z,74.93
2023-04-14T15:14:05.967Z,76.00
2023-04-14T15:16:33.811Z,83.05
2023-04-14T15:19:01.499Z,82.47
2023-04-14T15:21:32.577Z,74.05
2023-04-14T15:24:00.816Z,79.60
2023-04-14T15:26:28.693Z,76.43
2023-04-14T15:28:56.334Z,73.43
2023-04-14T15:31:24.092Z,75.18
2023-04-14T15:33:51.871Z,74.10
2023-04-14T15:36:19.564Z,79.95
2023-04-14T15:38:49.994Z,72.78
2023-04-14T15:41:17.611Z,75.57
2023-04-14T15:43:45.702Z,74.40
2023-04-14T15:46:14.863Z,71.82
2023-04-14T15:48:42.865Z,75.03
2023-04-14T15:51:10.555Z,70.25
2023-04-14T15:53:38.175Z,77.63
2023-04-14T15:56:07.510Z,75.45
2023-04-14T15:58:35.332Z,67.80
2023-04-14T16:01:07.447Z,70.97
2023-04-14T16:03:35.398Z,67.30
2023-04-14T16:06:03.786Z,75.28
2023-04-14T16:08:32.052Z,68.00
2023-04-14T16:10:59.985Z,65.55
2023-04-14T16:13:29.220Z,68.40
2023-04-14T16:15:58.256Z,68.38
2023-04-14T16:18:26.124Z,73.03
2023-04-14T16:20:53.748Z,66.20
2023-04-14T16:23:21.867Z,68.80
2023-04-14T16:25:50.349Z,63.97
2023-04-14T16:28:18.505Z,65.45
2023-04-14T16:30:47.444Z,65.60
2023-04-14T16:33:15.672Z,69.32
2023-04-14T16:35:43.257Z,69.40
2023-04-14T16:38:10.929Z,68.53
2023-04-14T16:40:38.945Z,65.15
2023-04-14T16:43:07.039Z,66.97
2023-04-14T16:45:34.826Z,59.92
2023-04-14T16:48:03.946Z,67.68
2023-04-14T16:50:31.758Z,77.45
2023-04-14T16:52:59.419Z,89.45
2023-04-14T16:55:27.546Z,89.03
2023-04-14T16:57:55.142Z,90.20
2023-04-14T17:00:22.800Z,95.50
2023-04-14T17:02:51.198Z,104.65
2023-04-14T17:05:21.571Z,98.15
2023-04-14T17:07:49.897Z,103.85
2023-04-14T17:10:17.588Z,108.78
2023-04-14T17:12:46.579Z,98.70
2023-04-14T17:15:14.190Z,97.82
2023-04-14T17:17:42.806Z,111.03
2023-04-14T17:20:12.188Z,102.38
2023-04-14T17:22:41.199Z,104.40
2023-04-14T17:25:10.658Z,104.97
2023-04-14T17:27:39.060Z,113.25
2023-04-14T17:30:10.156Z,111.00
2023-04-14T17:32:38.997Z,113.18
2023-04-14T17:35:07.682Z,113.63
2023-04-14T17:37:36.038Z,119.95
2023-04-14T17:40:05.891Z,117.57
2023-04-14T17:42:34.237Z,113.45
2023-04-14T17:45:02.217Z,120.65
2023-04-14T17:47:31.343Z,124.22
2023-04-14T17:49:59.140Z,126.72
2023-04-14T17:52:27.606Z,130.10
2023-04-14T17:54:55.937Z,133.52
2023-04-14T17:57:25.476Z,129.05
2023-04-14T17:59:53.828Z,124.30
2023-04-14T18:02:21.461Z,130.23
2023-04-14T18:04:49.170Z,123.85
2023-04-14T18:07:17.409Z,121.25
2023-04-14T18:09:45.217Z,143.10
2023-04-14T18:12:13.834Z,153.98
2023-04-14T18:14:44.571Z,164.05
2023-04-14T18:17:12.863Z,154.80
2023-04-14T18:19:40.558Z,166.77
2023-04-14T18:22:08.249Z,177.32
2023-04-14T18:29:37.810Z,175.10
2023-04-14T18:32:06.738Z,200.00
2023-04-14T18:34:34.734Z,196.33
2023-04-14T18:37:03.895Z,214.03
2023-04-14T18:39:33.487Z,217.77
2023-04-14T18:42:01.155Z,231.73
2023-04-14T18:44:29.135Z,243.93
2023-04-14T18:46:56.908Z,238.60
2023-04-14T18:49:25.957Z,229.27
2023-04-14T18:51:54.499Z,231.83
2023-04-14T18:54:22.566Z,235.30
2023-04-14T18:56:50.655Z,222.93
2023-04-14T18:59:18.373Z,210.07
2023-04-14T19:01:46.180Z,210.07
2023-04-14T19:04:14.210Z,210.97
2023-04-14T19:06:43.920Z,210.67
2023-04-14T19:09:11.947Z,215.53
2023-04-14T19:11:39.950Z,217.87
2023-04-14T19:14:07.649Z,200.03
2023-04-14T19:16:35.283Z,212.80
2023-04-14T19:19:03.089Z,192.00
2023-04-14T19:21:31.807Z,204.47
2023-04-14T19:24:00.812Z,210.63
2023-04-14T19:26:29.775Z,209.33
2023-04-14T19:28:58.709Z,212.53
2023-04-14T19:31:28.258Z,224.40
2023-04-14T19:33:58.513Z,201.47
2023-04-14T19:36:26.266Z,199.37
2023-04-14T19:38:53.989Z,212.57
2023-04-14T19:41:23.190Z,216.97
2023-04-14T19:43:51.924Z,200.13
2023-04-14T19:46:19.553Z,203.60
2023-04-14T19:48:47.141Z,199.60
2023-04-14T19:51:14.770Z,196.03
2023-04-14T19:53:43.918Z,209.30
2023-04-14T19:56:12.659Z,204.73
2023-04-14T19:58:41.606Z,192.60
2023-04-14T20:01:09.485Z,193.00
2023-04-14T20:03:37.188Z,201.63
2023-04-14T20:06:05.244Z,190.50
2023-04-14T20:08:33.123Z,184.87
2023-04-14T20:11:01.533Z,192.03
2023-04-14T20:13:31.965Z,194.10
2023-04-14T20:16:01.577Z,183.00
2023-04-14T20:18:29.310Z,187.13
2023-04-14T20:20:57.213Z,185.53
2023-04-14T20:23:24.960Z,185.77
2023-04-14T20:25:53.806Z,193.07
2023-04-14T20:28:25.591Z,198.70
2023-04-14T20:30:54.783Z,186.53
2023-04-14T20:33:24.446Z,187.03
2023-04-14T20:35:53.822Z,201.70
2023-04-14T20:38:22.354Z,191.07
2023-04-14T20:40:50.030Z,190.33
2023-04-14T20:43:17.617Z,185.80
2023-04-14T20:45:45.536Z,188.97
2023-04-14T20:48:13.570Z,201.60
2023-04-14T20:50:44.225Z,205.23
2023-04-14T20:53:11.881Z,204.37
2023-04-14T20:55:41.030Z,188.67
2023-04-14T20:58:08.745Z,213.70
2023-04-14T21:00:36.376Z,207.80
2023-04-14T21:03:04.457Z,214.47
2023-04-14T21:05:32.847Z,211.43
2023-04-14T21:08:02.147Z,204.67
2023-04-14T21:10:29.852Z,210.37
2023-04-14T21:15:43.512Z,192.47
2023-04-14T21:15:54.753Z,190.73
2023-04-14T21:18:23.776Z,180.57
2023-04-14T21:20:51.763Z,176.20
2023-04-14T21:23:21.269Z,178.10
2023-04-14T21:25:49.046Z,170.30
2023-04-14T21:28:16.809Z,172.90
2023-04-14T21:30:44.529Z,183.17
2023-04-14T21:33:12.278Z,184.23
2023-04-14T21:35:39.908Z,182.83
2023-04-14T21:38:07.984Z,181.33
2023-04-14T21:40:36.900Z,190.67
2023-04-14T21:43:04.815Z,199.80
2023-04-14T21:45:32.760Z,194.57
2023-04-14T21:48:00.550Z,181.10
2023-04-14T21:50:28.696Z,190.43
2023-04-14T21:52:56.529Z,186.90
2023-04-14T21:55:24.168Z,184.43
2023-04-14T21:57:55.154Z,184.53
2023-04-14T22:00:24.061Z,190.07
2023-04-14T22:02:51.795Z,176.50
2023-04-14T22:05:19.837Z,188.07
2023-04-14T22:07:47.474Z,199.90
2023-04-14T22:10:15.558Z,195.07
2023-04-14T22:12:44.620Z,182.93
2023-04-14T22:15:14.356Z,178.80
2023-04-14T22:17:42.482Z,177.37
2023-04-14T22:20:11.902Z,185.50
2023-04-14T22:22:39.625Z,177.50
2023-04-14T22:25:08.358Z,157.63
2023-04-14T22:27:36.521Z,175.80
2023-04-14T22:30:05.223Z,164.27
2023-04-14T22:32:34.385Z,168.90
2023-04-14T22:35:02.034Z,183.17
2023-04-14T22:37:29.650Z,172.67
2023-04-14T22:39:57.723Z,159.37
2023-04-14T22:42:25.973Z,160.00
2023-04-14T22:44:54.297Z,172.20
2023-04-14T22:47:22.332Z,148.10
2023-04-14T22:49:51.752Z,140.17
2023-04-14T22:52:19.817Z,149.50
2023-04-14T22:54:48.571Z,153.57
2023-04-14T22:57:16.431Z,157.33
2023-04-14T22:59:44.257Z,151.10
2023-04-14T23:02:12.089Z,174.30
2023-04-14T23:04:39.987Z,173.00
2023-04-14T23:07:09.014Z,148.63
2023-04-14T23:09:36.606Z,167.73
2023-04-14T23:12:04.486Z,154.67
2023-04-14T23:14:33.092Z,141.87
2023-04-14T23:17:00.952Z,146.37
2023-04-14T23:19:28.678Z,150.93
2023-04-14T23:21:56.820Z,159.20
2023-04-14T23:24:25.966Z,146.63
2023-04-14T23:26:53.629Z,141.50
2023-04-14T23:29:21.388Z,158.90
2023-04-14T23:31:49.113Z,153.70
2023-04-14T23:34:16.796Z,171.73
2023-04-14T23:36:46.681Z,153.17
2023-04-14T23:39:14.269Z,148.20
2023-04-14T23:41:43.195Z,154.80
2023-04-14T23:44:10.736Z,155.97
2023-04-14T23:46:39.186Z,151.00
2023-04-14T23:49:24.623Z,155.33
2023-04-14T23:51:54.677Z,142.80
2023-04-14T23:54:22.246Z,148.33
2023-04-14T23:56:51.523Z,165.33
2023-04-14T23:59:19.110Z,158.80
